createdAt,value
2022-09-12T00:14:45.378Z,87.83
2022-09-12T00:20:18.513Z,87.64
2022-09-12T00:25:49.793Z,87.66
2022-09-12T00:36:50.606Z,87.83
2022-09-12T00:42:21.997Z,87.74
2022-09-12T00:47:53.600Z,87.93
2022-09-12T00:53:25.002Z,87.96
2022-09-12T00:58:56.520Z,88.20
2022-09-12T01:04:28.010Z,88.16
2022-09-12T01:09:59.362Z,88.32
2022-09-12T01:15:30.837Z,88.12
2022-09-12T01:21:02.635Z,88.21
2022-09-12T01:26:33.905Z,88.05
2022-09-12T01:32:05.715Z,88.18
2022-09-12T01:37:37.277Z,88.14
2022-09-12T01:43:08.647Z,87.90
2022-09-12T01:48:40.158Z,88.24
2022-09-12T01:54:11.953Z,88.27
2022-09-12T01:59:43.442Z,88.38
2022-09-12T02:05:14.929Z,88.27
2022-09-12T02:10:46.181Z,88.70
2022-09-12T02:16:18.012Z,88.54
2022-09-12T02:21:49.419Z,88.63
2022-09-12T02:27:21.017Z,88.86
2022-09-12T02:32:52.381Z,88.62
2022-09-12T02:38:23.855Z,88.81
2022-09-12T02:43:55.221Z,88.66
2022-09-12T02:49:26.565Z,88.80
2022-09-12T02:54:58.286Z,88.82
2022-09-12T03:00:29.713Z,88.94
2022-09-12T03:06:00.988Z,88.86
2022-09-12T03:11:32.358Z,89.08
2022-09-12T03:17:03.639Z,88.98
2022-09-12T03:22:35.147Z,88.94
2022-09-12T03:33:35.919Z,89.10
2022-09-12T03:39:07.187Z,89.10
2022-09-12T03:44:38.635Z,88.95
2022-09-12T03:50:09.995Z,89.01
2022-09-12T03:55:41.772Z,89.27
2022-09-12T04:01:13.178Z,89.23
2022-09-12T04:06:44.495Z,89.83
2022-09-12T04:17:45.357Z,90.08
2022-09-12T04:23:16.825Z,89.24
2022-09-12T04:28:48.473Z,89.20
2022-09-12T04:34:20.017Z,89.32
2022-09-12T04:39:51.741Z,87.96
2022-09-12T04:45:23.299Z,88.91
2022-09-12T04:50:54.990Z,89.11
2022-09-12T05:01:55.816Z,89.42
2022-09-12T05:07:27.506Z,89.75
2022-09-12T05:12:58.888Z,88.97
2022-09-12T05:18:30.576Z,88.13
2022-09-12T05:24:01.981Z,84.64
2022-09-12T05:29:33.293Z,81.05
2022-09-12T05:35:05.000Z,77.85
2022-09-12T05:40:36.874Z,76.19
2022-09-12T05:46:08.607Z,71.89
2022-09-12T05:51:40.397Z,68.86
2022-09-12T05:57:12.083Z,64.85
2022-09-12T06:02:43.572Z,62.70
2022-09-12T06:08:15.245Z,66.65
2022-09-12T06:13:46.682Z,63.40
2022-09-12T06:19:18.364Z,58.53
2022-09-12T06:24:50.817Z,57.63
2022-09-12T06:30:25.356Z,56.96
2022-09-12T06:35:53.708Z,52.46
2022-09-12T06:41:25.112Z,54.12
2022-09-12T06:46:56.466Z,52.72
2022-09-12T06:52:28.251Z,51.45
2022-09-12T06:54:39.907Z,52.07
2022-09-12T07:00:11.103Z,51.91
2022-09-12T07:05:42.519Z,48.09
2022-09-12T07:11:13.747Z,46.72
2022-09-12T07:16:45.280Z,47.89
2022-09-12T07:27:50.595Z,46.49
2022-09-12T07:33:18.953Z,46.05
2022-09-12T07:38:52.105Z,45.77
2022-09-12T07:44:22.125Z,46.60
2022-09-12T07:49:53.713Z,44.12
2022-09-12T07:55:25.126Z,45.02
2022-09-12T08:00:56.927Z,41.68
2022-09-12T08:06:28.906Z,44.08
2022-09-12T08:12:00.502Z,42.16
2022-09-12T08:17:31.787Z,45.57
2022-09-12T08:23:03.051Z,46.06
2022-09-12T08:28:34.804Z,46.50
2022-09-12T08:34:06.203Z,50.25
2022-09-12T08:45:07.214Z,49.06
2022-09-12T08:50:38.761Z,50.08
2022-09-12T08:56:10.214Z,48.60
2022-09-12T09:01:41.966Z,51.59
2022-09-12T09:07:13.750Z,51.11
2022-09-12T09:12:45.478Z,52.50
2022-09-12T09:18:16.733Z,53.07
2022-09-12T09:23:48.068Z,54.49
2022-09-12T09:29:19.297Z,57.30
2022-09-12T09:34:50.612Z,58.75
2022-09-12T09:40:22.271Z,58.31
2022-09-12T09:45:53.660Z,59.43
2022-09-12T09:51:25.090Z,58.80
2022-09-12T09:56:56.385Z,57.88
2022-09-12T10:02:27.672Z,58.27
2022-09-12T10:07:59.278Z,58.44
2022-09-12T10:13:31.031Z,57.92
2022-09-12T10:19:02.795Z,56.33
2022-09-12T10:24:33.956Z,56.59
2022-09-12T10:30:05.346Z,55.69
2022-09-12T10:35:36.678Z,54.31
2022-09-12T10:41:08.380Z,54.32
2022-09-12T10:46:39.761Z,54.85
2022-09-12T10:52:11.185Z,55.88
2022-09-12T10:57:42.455Z,56.03
2022-09-12T11:03:13.824Z,55.43
2022-09-12T11:08:45.482Z,55.23
2022-09-12T11:14:16.707Z,55.47
2022-09-12T11:19:48.014Z,54.70
2022-09-12T11:25:19.501Z,53.45
2022-09-12T11:30:50.807Z,54.23
2022-09-12T11:36:22.020Z,53.49
2022-09-12T11:41:53.367Z,52.73
2022-09-12T11:47:24.704Z,53.43
2022-09-12T12:03:55.350Z,51.92
2022-09-12T12:09:26.972Z,52.50
2022-09-12T12:17:19.115Z,52.01
2022-09-12T12:22:50.789Z,52.46
2022-09-12T12:28:22.739Z,53.69
2022-09-12T12:33:54.238Z,53.23
2022-09-12T12:44:59.277Z,53.12
2022-09-12T12:50:30.663Z,53.11
2022-09-12T12:56:02.538Z,51.90
2022-09-12T13:01:34.286Z,51.06
2022-09-12T13:07:08.131Z,51.85
2022-09-12T13:12:37.235Z,51.47
2022-09-12T13:18:08.803Z,50.54
2022-09-12T13:23:40.550Z,50.39
2022-09-12T13:29:12.264Z,50.68
2022-09-12T13:34:43.851Z,50.74
2022-09-12T13:40:15.202Z,48.98
2022-09-12T13:45:47.230Z,49.76
2022-09-12T13:51:18.927Z,49.08
2022-09-12T13:56:50.607Z,49.38
2022-09-12T14:02:21.918Z,48.78
2022-09-12T14:07:53.279Z,50.62
2022-09-12T14:13:24.814Z,49.04
2022-09-12T14:18:56.111Z,48.64
2022-09-12T14:24:27.588Z,50.70
2022-09-12T14:29:58.731Z,50.55
2022-09-12T14:37:50.346Z,52.22
2022-09-12T14:43:21.149Z,52.56
2022-09-12T14:48:52.415Z,52.42
2022-09-12T14:54:23.891Z,51.06
2022-09-12T14:59:55.284Z,51.76
2022-09-12T15:05:27.197Z,51.90
2022-09-12T15:10:58.818Z,50.71
2022-09-12T15:16:30.468Z,49.96
2022-09-12T15:22:01.632Z,49.69
2022-09-12T15:27:33.042Z,49.89
2022-09-12T15:33:04.614Z,49.28
2022-09-12T15:38:36.360Z,49.02
2022-09-12T15:44:08.184Z,49.08
2022-09-12T15:49:39.825Z,49.71
2022-09-12T15:55:11.127Z,50.13
2022-09-12T16:00:42.522Z,50.45
2022-09-12T16:06:13.997Z,50.74
2022-09-12T16:11:45.750Z,51.26
2022-09-12T16:17:17.518Z,51.28
2022-09-12T16:22:49.311Z,51.35
2022-09-12T16:28:20.783Z,51.10
2022-09-12T16:33:52.331Z,51.05
2022-09-12T16:39:23.870Z,51.10
2022-09-12T16:44:56.013Z,51.46
2022-09-12T16:50:28.028Z,52.00
2022-09-12T16:55:59.745Z,53.04
2022-09-12T17:01:31.400Z,54.58
2022-09-12T17:07:02.768Z,54.35
2022-09-12T17:12:34.259Z,55.78
2022-09-12T17:18:05.897Z,56.69
2022-09-12T17:23:37.324Z,56.60
2022-09-12T17:29:08.819Z,58.70
2022-09-12T17:34:40.333Z,59.51
2022-09-12T17:40:12.047Z,60.19
2022-09-12T17:45:44.043Z,60.83
2022-09-12T17:51:15.631Z,60.99
2022-09-12T17:56:47.326Z,61.67
2022-09-12T18:02:18.966Z,62.19
2022-09-12T18:07:50.145Z,62.40
2022-09-12T18:13:22.253Z,63.67
2022-09-12T18:18:52.677Z,63.89
2022-09-12T18:24:23.953Z,63.67
2022-09-12T18:30:17.520Z,64.30
2022-09-12T18:35:27.085Z,65.81
2022-09-12T18:40:58.760Z,65.14
2022-09-12T18:46:30.836Z,67.86
2022-09-12T18:52:02.044Z,68.15
2022-09-12T18:57:33.550Z,68.57
2022-09-12T19:05:26.296Z,68.35
2022-09-12T19:10:58.703Z,69.34
2022-09-12T19:16:30.026Z,69.45
2022-09-12T19:22:01.316Z,69.44
2022-09-12T19:27:32.746Z,69.45
2022-09-12T19:33:04.093Z,69.32
2022-09-12T19:44:08.222Z,70.19
2022-09-12T19:57:31.290Z,71.38
2022-09-12T20:03:02.888Z,72.11
2022-09-12T20:14:05.987Z,73.68
2022-09-12T20:19:37.596Z,73.86
2022-09-12T20:25:08.925Z,74.07
2022-09-12T20:30:40.344Z,74.11
2022-09-12T20:36:11.622Z,71.53
2022-09-12T20:41:43.433Z,73.77
2022-09-12T20:47:15.038Z,75.62
2022-09-12T20:52:46.689Z,75.74
2022-09-12T20:58:18.303Z,76.20
2022-09-12T21:03:50.002Z,77.00
2022-09-12T21:09:21.883Z,77.04
2022-09-12T21:14:53.645Z,77.57
2022-09-12T21:20:25.348Z,76.90
2022-09-12T21:25:57.180Z,76.87
2022-09-12T21:31:28.917Z,77.07
2022-09-12T21:37:02.460Z,77.13
2022-09-12T21:42:33.949Z,77.30
2022-09-12T21:48:05.718Z,79.66
2022-09-12T21:53:37.360Z,78.21
2022-09-12T21:59:08.832Z,77.09
2022-09-12T22:04:40.534Z,76.28
2022-09-12T22:10:12.401Z,77.32
2022-09-12T22:15:43.889Z,78.20
2022-09-12T22:21:15.153Z,77.71
2022-09-12T22:26:46.942Z,78.55
2022-09-12T22:37:50.349Z,83.06
2022-09-12T22:43:21.687Z,83.41
2022-09-12T22:48:53.162Z,82.33
2022-09-12T22:54:25.225Z,82.65
2022-09-12T22:59:56.452Z,80.91
2022-09-12T23:05:27.951Z,81.39
2022-09-12T23:10:59.479Z,81.01
2022-09-12T23:16:30.981Z,82.13
2022-09-12T23:22:02.295Z,82.05
2022-09-12T23:27:33.482Z,81.46
2022-09-12T23:33:05.227Z,81.04
2022-09-12T23:38:36.734Z,82.23
2022-09-12T23:44:07.876Z,80.75
2022-09-12T23:49:39.448Z,83.30
2022-09-12T23:55:11.380Z,84.50
